NCAR-RAP Real-Time Weather Data

Output produced by METARs form (12 August 2020  18:53 UTC)
found at http://weather.rap.ucar.edu/surface/
 
KPIT 121751Z 33004KT 10SM SCT050 OVC250 29/17 A3008 RMK AO2 SLP184 T02940167 10300 20228 56007
KPIT 121651Z VRB05KT 10SM SCT045 OVC250 30/17 A3009 RMK AO2 SLP185 T03000172
KPIT 121551Z 07004KT 10SM SCT036 SCT080 OVC250 28/17 A3009 RMK AO2 SLP187 T02780172
KPIT 121451Z VRB03KT 10SM SCT030 BKN250 26/18 A3010 RMK AO2 SLP191 T02610183 50002
KPIT 121351Z 07003KT 10SM FEW022 SCT070 BKN250 26/18 A3011 RMK AO2 SLP192 T02610183
KPIT 121251Z 00000KT 10SM FEW032 BKN050 BKN250 23/20 A3011 RMK AO2 SLP194 T02330200
KPIT 121151Z 03004KT 10SM SCT045 BKN250 23/20 A3010 RMK AO2 SLP189 T02280200 10228 20200 53016
KPIT 121051Z 36003KT 10SM BKN036 BKN250 22/19 A3008
KPIT 120951Z 00000KT 10SM BKN030 BKN065 BKN250 21/19 A3006 RMK AO2 SLP177 T02060189
KPIT 120851Z 00000KT 10SM FEW028 FEW045 21/19 A3005 RMK AO2 SLP173 T02060189 51004
KPIT 120751Z 00000KT 10SM BKN030 BKN045 21/19 A3005 RMK AO2 SLP172 T02110189
KPIT 120651Z 00000KT 10SM FEW028 SCT046 22/19 A3005 RMK AO2 SLP171 T02220189
KPIT 120551Z 26003KT 10SM FEW028 BKN043 23/19 A3004 RMK AO2 SLP168 T02280194 10278 20222 53008
KPIT 120451Z 28004KT 10SM FEW050 23/19 A3003 RMK AO2 SLP166 T02280189 403060200
KPIT 120351Z 31003KT 10SM FEW038 SCT060 24/19 A3002 RMK AO2 SLP161 T02440189
KPIT 120251Z 30009KT 10SM SCT038 BKN060 26/19 A3001 RMK AO2 SLP161 T02560189 51017
KPIT 120151Z 26004KT 10SM FEW050 FEW250 26/18 A3000 RMK AO2 SLP156 T02560183
KPIT 120051Z 26004KT 10SM FEW050 FEW250 26/18 A2998 RMK AO2 SLP149 T02610183
KPIT 112351Z 26005KT 10SM FEW048 SCT250 28/18 A2996 RMK AO2 SLP143 T02780183 10306 20278 53003
KPIT 112251Z 26006KT 10SM SCT044 SCT250 29/19 A2995 RMK AO2 SLP139 T02890189
KPIT 112151Z 26008KT 10SM SCT050 SCT250 30/18 A2996 RMK AO2 SLP141 T03000183
KPIT 112051Z 26009KT 10SM SCT047 BKN250 31/18 A2995 RMK AO2 SLP138 T03060178 55008
KPIT 111951Z 22012KT 10SM SCT041 BKN250 30/19 A2995 RMK AO2 SLP138 T03000189
KPIT 111851Z 23008KT 10SM FEW035 SCT150 BKN220 29/19 A2996 RMK AO2 SLP143 T02940189
KPIT 111751Z 21007KT 10SM FEW031 SCT140 BKN220 28/19 A2998 RMK AO2 SLP148 60000 T02780194 10283 20206 57005
KPIT 111651Z 21008KT 10SM FEW016 SCT022 SCT110 28/19 A2998 RMK AO2 SLP148 T02830189
KPIT 111551Z 23008KT 10SM FEW016 SCT022 SCT110 26/21 A2999 RMK AO2 SLP153 T02610206
KPIT 111451Z 23008KT 10SM SCT022 SCT110 BKN250 24/21 A2999 RMK AO2 SLP154 60000 T02390206 51006
KPIT 111351Z 29005KT 10SM FEW028 SCT055 BKN110 BKN250 22/20 A2998 RMK AO2 RAE48 SLP151 P0000 T02170200
KPIT 111251Z 29005KT 9SM -RA FEW009 SCT026 OVC055 21/19 A2999 RMK AO2 RAB09 SLP154 P0000 T02110194 $
KPIT 111232Z 28005KT 7SM -RA FEW009 SCT023 OVC090 21/19 A2999 RMK AO2 RAB09 P0000 T02110194 $
KPIT 111151Z 23003KT 10SM FEW032 BKN065 OVC080 21/18 A2997 RMK AO2 RAB01E49 SLP146 P0001 60001 7//// T02110183 10233 20200 53016 $
KPIT 111051Z 11007KT 10SM SCT065 BKN080 22/17 A2996 RMK AO2 SLP141 T02220167 $
KPIT 110951Z 17004KT 10SM BKN090 21/17 A2994 RMK AO2 SLP134 T02060167 $
KPIT 110851Z 17004KT 10SM FEW250 21/17 A2992 RMK AO2 SLP129 T02060167 56009 $
KPIT 110751Z 18004KT 10SM FEW120 FEW230 22/17 A2993 RMK AO2 SLP130 T02170167 $
KPIT 110651Z 16005KT 10SM FEW100 SCT200 22/17 A2994 RMK AO2 SLP133 T02170167 $
KPIT 110551Z 18005KT 10SM FEW080 BKN230 22/17 A2995 RMK AO2 SLP138 T02220167 10300 20222 58008 $
KPIT 110451Z 16004KT 10SM FEW070 BKN250 23/17 A2996 RMK AO2 SLP142 T02280167 403220183 $
KPIT 110351Z 19003KT 10SM FEW060 BKN250 24/16 A2997 RMK AO2 SLP146 T02390161 $
KPIT 110251Z 24004KT 10SM FEW060 SCT250 26/16 A2998 RMK AO2 SLP146 T02560161 50010 $
KPIT 110151Z 18004KT 10SM FEW060 SCT250 26/17 A2998 RMK AO2 SLP148 T02610167 $
KPIT 110051Z 22004KT 10SM SCT060 SCT250 28/17 A2997 RMK AO2 SLP145 T02780167 $
KPIT 102351Z 21005KT 10SM FEW055 FEW250 30/16 A2994 RMK AO2 SLP137 T03000161 10322 20294 55017 $
KPIT 102251Z 18006KT 10SM FEW055 FEW250 31/16 A2994 RMK AO2 SLP136 T03060156 $
KPIT 102151Z 24007KT 10SM FEW050 FEW250 31/16 A2996 RMK AO2 SLP141 T03110156 $
KPIT 102051Z 25007KT 10SM FEW050 SCT250 32/16 A3000 RMK AO2 SLP154 T03170161 58025
KPIT 101951Z COR VRB04KT 10SM FEW050 BKN250 32/17 A3003 RMK AO2 SLP164 T03170167